createdAt,value
2022-09-27T00:00:43.945Z,82.60
2022-09-27T00:03:11.753Z,83.50
2022-09-27T00:05:38.771Z,82.90
2022-09-27T00:08:05.505Z,83.10
2022-09-27T00:10:32.494Z,83.10
2022-09-27T00:13:00.996Z,83.10
2022-09-27T00:15:27.739Z,83.30
2022-09-27T00:17:54.983Z,83.30
2022-09-27T00:20:21.756Z,83.30
2022-09-27T00:22:48.813Z,83.10
2022-09-27T00:25:15.840Z,83.10
2022-09-27T00:27:42.630Z,83.10
2022-09-27T00:30:10.462Z,83.10
2022-09-27T00:32:37.213Z,83.10
2022-09-27T00:35:04.220Z,83.10
2022-09-27T00:37:32.907Z,83.30
2022-09-27T00:40:01.432Z,83.60
2022-09-27T00:42:28.160Z,83.70
2022-09-27T00:45:07.169Z,84.20
2022-09-27T00:47:42.912Z,84.10
2022-09-27T00:50:30.631Z,84.00
2022-09-27T00:53:03.812Z,83.80
2022-09-27T00:55:36.986Z,83.70
2022-09-27T00:58:05.085Z,83.60
2022-09-27T01:00:32.365Z,83.70
2022-09-27T01:02:59.170Z,83.70
2022-09-27T01:05:27.219Z,84.70
2022-09-27T01:07:56.830Z,84.20
2022-09-27T01:10:25.462Z,84.40
2022-09-27T01:13:16.071Z,85.00
2022-09-27T01:15:57.886Z,85.30
2022-09-27T01:18:37.878Z,85.40
2022-09-27T01:21:13.380Z,85.00
2022-09-27T01:23:43.162Z,84.80
2022-09-27T01:26:09.885Z,84.60
2022-09-27T01:28:56.168Z,84.60
2022-09-27T01:31:34.266Z,84.60
2022-09-27T01:34:15.735Z,84.60
2022-09-27T01:37:13.921Z,84.30
2022-09-27T01:39:45.074Z,84.70
2022-09-27T01:42:28.731Z,85.20
2022-09-27T01:45:05.841Z,85.60
2022-09-27T01:47:44.715Z,85.40
2022-09-27T01:50:16.842Z,85.50
2022-09-27T01:52:49.673Z,85.30
2022-09-27T01:55:17.336Z,85.10
2022-09-27T01:57:46.589Z,85.00
2022-09-27T02:00:13.744Z,84.80
2022-09-27T02:02:54.777Z,84.60
2022-09-27T02:05:21.544Z,84.60
2022-09-27T02:07:53.603Z,84.50
2022-09-27T02:10:23.436Z,84.40
2022-09-27T02:12:57.347Z,84.60
2022-09-27T02:15:24.145Z,84.80
2022-09-27T02:17:55.463Z,84.90
2022-09-27T02:20:36.268Z,85.20
2022-09-27T02:23:16.763Z,85.40
2022-09-27T02:25:46.904Z,85.20
2022-09-27T02:28:16.582Z,85.10
2022-09-27T02:30:43.362Z,85.00
2022-09-27T02:33:10.299Z,85.00
2022-09-27T02:35:37.569Z,84.70
2022-09-27T02:38:04.650Z,84.70
2022-09-27T02:40:33.407Z,84.60
2022-09-27T02:43:00.404Z,84.60
2022-09-27T02:45:30.748Z,84.90
2022-09-27T02:48:37.908Z,85.40
2022-09-27T02:51:11.862Z,85.70
2022-09-27T02:53:40.473Z,85.70
2022-09-27T02:56:30.530Z,85.60
2022-09-27T02:59:18.833Z,85.30
2022-09-27T03:02:14.200Z,85.10
2022-09-27T03:04:43.775Z,85.00
2022-09-27T03:07:10.496Z,84.90
2022-09-27T03:09:45.698Z,84.90
2022-09-27T03:12:12.563Z,84.80
2022-09-27T03:14:40.074Z,84.80
2022-09-27T03:17:06.920Z,84.80
2022-09-27T03:19:33.688Z,85.10
2022-09-27T03:22:00.428Z,85.10
2022-09-27T03:24:27.136Z,85.30
2022-09-27T03:26:53.874Z,85.40
2022-09-27T03:29:20.622Z,85.60
2022-09-27T03:31:47.431Z,85.40
2022-09-27T03:34:14.189Z,86.20
2022-09-27T03:36:41.248Z,85.30
2022-09-27T03:39:08.008Z,85.20
2022-09-27T03:41:35.005Z,85.00
2022-09-27T03:44:01.857Z,85.00
2022-09-27T03:46:28.612Z,84.90
2022-09-27T03:48:55.366Z,85.00
2022-09-27T03:51:22.117Z,85.20
2022-09-27T03:53:49.551Z,85.60
2022-09-27T03:56:16.277Z,85.70
2022-09-27T03:58:43.076Z,85.60
2022-09-27T04:01:09.914Z,85.70
2022-09-27T04:03:36.690Z,85.60
2022-09-27T04:06:03.873Z,85.70
2022-09-27T04:08:30.646Z,85.50
2022-09-27T04:10:57.351Z,85.60
2022-09-27T04:13:24.343Z,85.50
2022-09-27T04:15:52.423Z,85.30
2022-09-27T04:18:19.373Z,85.20
2022-09-27T04:20:46.114Z,85.10
2022-09-27T04:23:13.623Z,85.30
2022-09-27T04:25:40.446Z,85.60
2022-09-27T04:28:07.224Z,85.70
2022-09-27T04:30:33.999Z,85.60
2022-09-27T04:33:00.785Z,85.60
2022-09-27T04:35:45.871Z,85.60
2022-09-27T04:38:13.817Z,85.60
2022-09-27T04:40:41.227Z,85.60
2022-09-27T04:43:08.001Z,85.40
2022-09-27T04:45:34.713Z,85.30
2022-09-27T04:48:01.656Z,85.30
2022-09-27T04:50:29.152Z,85.40
2022-09-27T04:52:57.128Z,85.40
2022-09-27T04:55:24.005Z,85.50
2022-09-27T04:57:50.860Z,85.70
2022-09-27T05:00:17.678Z,85.90
2022-09-27T05:02:45.729Z,85.90
2022-09-27T05:05:12.568Z,85.60
2022-09-27T05:07:39.850Z,85.70
2022-09-27T05:10:07.602Z,85.90
2022-09-27T05:12:34.461Z,86.00
2022-09-27T05:15:01.179Z,86.10
2022-09-27T05:17:27.977Z,86.20
2022-09-27T05:19:54.693Z,86.20
2022-09-27T05:22:21.485Z,86.20
2022-09-27T05:24:48.207Z,86.20
2022-09-27T05:27:16.866Z,86.30
2022-09-27T05:29:43.632Z,86.40
2022-09-27T05:32:10.432Z,86.50
2022-09-27T05:34:37.172Z,86.20
2022-09-27T05:37:03.887Z,86.00
2022-09-27T05:39:30.604Z,86.10
2022-09-27T05:41:57.609Z,86.20
2022-09-27T05:44:26.001Z,86.20
2022-09-27T05:46:52.847Z,86.30
2022-09-27T05:49:20.381Z,86.10
2022-09-27T05:51:48.087Z,86.10
2022-09-27T05:54:14.910Z,86.00
2022-09-27T05:56:41.738Z,85.90
2022-09-27T05:59:08.587Z,85.80
2022-09-27T06:01:35.805Z,86.00
2022-09-27T06:04:03.912Z,86.20
2022-09-27T06:06:30.608Z,86.30
2022-09-27T06:08:57.709Z,86.50
2022-09-27T06:11:25.464Z,87.00
2022-09-27T06:13:52.258Z,86.50
2022-09-27T06:16:19.704Z,86.00
2022-09-27T06:18:46.581Z,86.20
2022-09-27T06:21:13.609Z,86.30
2022-09-27T06:23:40.500Z,86.50
2022-09-27T06:26:08.071Z,86.50
2022-09-27T06:28:38.227Z,86.00
2022-09-27T06:31:09.152Z,86.20
2022-09-27T06:33:36.170Z,86.00
2022-09-27T06:36:06.049Z,86.00
2022-09-27T06:38:33.024Z,86.00
2022-09-27T06:41:03.520Z,86.40
2022-09-27T06:43:31.521Z,86.60
2022-09-27T06:46:05.484Z,87.30
2022-09-27T06:48:33.139Z,87.60
2022-09-27T06:51:00.150Z,87.80
2022-09-27T06:53:27.307Z,88.00
2022-09-27T06:55:54.083Z,88.50
2022-09-27T06:58:40.534Z,89.00
2022-09-27T07:01:09.496Z,88.90
2022-09-27T07:03:41.047Z,89.20
2022-09-27T07:06:13.028Z,88.70
2022-09-27T07:08:39.777Z,88.30
2022-09-27T07:11:07.497Z,88.80
2022-09-27T07:13:37.115Z,88.30
2022-09-27T07:16:04.355Z,88.60
2022-09-27T07:18:31.468Z,89.30
2022-09-27T07:21:00.952Z,89.30
2022-09-27T07:23:28.271Z,88.70
2022-09-27T07:25:55.096Z,88.90
2022-09-27T07:28:23.574Z,88.50
2022-09-27T07:30:54.812Z,87.80
2022-09-27T07:33:23.058Z,88.00
2022-09-27T07:35:51.428Z,88.30
2022-09-27T07:38:18.257Z,88.00
2022-09-27T07:40:45.056Z,87.20
2022-09-27T07:43:12.353Z,87.30
2022-09-27T07:45:39.334Z,87.50
2022-09-27T07:48:07.990Z,87.70
2022-09-27T07:50:35.075Z,88.00
2022-09-27T07:53:01.890Z,87.40
2022-09-27T07:55:28.595Z,87.50
2022-09-27T07:58:05.862Z,87.90
2022-09-27T08:00:32.717Z,87.70
2022-09-27T08:02:59.511Z,87.80
2022-09-27T08:05:26.342Z,87.00
2022-09-27T08:07:56.987Z,87.10
2022-09-27T08:10:25.321Z,88.10
2022-09-27T08:12:53.024Z,88.50
2022-09-27T08:15:21.538Z,86.90
2022-09-27T08:17:48.315Z,87.30
2022-09-27T08:20:15.304Z,86.80
2022-09-27T08:22:42.994Z,86.50
2022-09-27T08:25:10.066Z,86.30
2022-09-27T08:27:36.778Z,86.30
2022-09-27T08:30:04.421Z,86.40
2022-09-27T08:32:31.177Z,87.50
2022-09-27T08:34:59.691Z,90.50
2022-09-27T08:37:26.659Z,90.30
2022-09-27T08:39:53.496Z,89.50
2022-09-27T08:42:44.538Z,88.30
2022-09-27T08:45:27.548Z,88.40
2022-09-27T08:47:56.840Z,87.10
2022-09-27T08:50:39.536Z,87.70
2022-09-27T08:53:27.211Z,86.20
2022-09-27T08:55:57.700Z,86.00
2022-09-27T08:58:51.410Z,85.50
2022-09-27T09:01:18.827Z,85.30
2022-09-27T09:03:55.410Z,84.40
2022-09-27T09:06:27.033Z,85.00
2022-09-27T09:09:22.150Z,82.30
2022-09-27T09:12:30.279Z,81.60
2022-09-27T09:15:23.336Z,81.40
2022-09-27T09:18:09.234Z,80.90
2022-09-27T09:20:54.189Z,79.20
2022-09-27T09:23:39.999Z,78.80
2022-09-27T09:26:30.778Z,78.40
2022-09-27T09:29:15.619Z,78.10
2022-09-27T09:32:10.008Z,78.40
2022-09-27T09:34:44.103Z,77.60
2022-09-27T09:37:19.701Z,82.30
2022-09-27T09:39:53.608Z,81.70
2022-09-27T09:42:29.338Z,82.30
2022-09-27T09:45:04.539Z,80.30
2022-09-27T09:47:40.774Z,80.30
2022-09-27T09:50:17.797Z,79.60
2022-09-27T09:52:48.192Z,78.40
2022-09-27T09:55:28.626Z,79.80
2022-09-27T09:58:04.156Z,79.70
2022-09-27T10:00:30.943Z,79.70
2022-09-27T10:02:59.187Z,79.20
2022-09-27T10:05:26.820Z,78.70
2022-09-27T10:07:56.555Z,78.40
2022-09-27T10:10:24.097Z,77.50
2022-09-27T10:12:52.493Z,77.70
2022-09-27T10:15:22.105Z,76.60
2022-09-27T10:17:59.660Z,76.20
2022-09-27T10:20:42.633Z,75.50
2022-09-27T10:23:15.174Z,74.80
2022-09-27T10:26:01.528Z,77.30
2022-09-27T10:28:34.212Z,76.90
2022-09-27T10:31:03.355Z,76.00
2022-09-27T10:33:32.454Z,75.00
2022-09-27T10:35:59.945Z,74.70
2022-09-27T10:38:34.017Z,74.50
2022-09-27T10:41:25.344Z,74.60
2022-09-27T10:43:53.616Z,74.00
2022-09-27T10:46:33.579Z,73.40
2022-09-27T10:49:22.338Z,73.20
2022-09-27T10:52:00.494Z,72.40
2022-09-27T10:54:29.324Z,71.60
2022-09-27T10:57:05.757Z,71.40
2022-09-27T10:59:35.826Z,71.10
2022-09-27T11:02:02.943Z,70.70
2022-09-27T11:04:34.127Z,70.70
2022-09-27T11:07:18.641Z,70.90
2022-09-27T11:10:03.952Z,70.30
2022-09-27T11:12:32.050Z,70.30
2022-09-27T11:15:02.304Z,69.80
2022-09-27T11:17:58.539Z,69.70
2022-09-27T11:20:42.379Z,69.20
2022-09-27T11:23:20.833Z,68.90
2022-09-27T11:25:51.948Z,68.10
2022-09-27T11:28:57.195Z,68.80
2022-09-27T11:31:57.543Z,69.30
2022-09-27T11:34:34.021Z,68.80
2022-09-27T11:37:08.052Z,68.40
2022-09-27T11:39:54.988Z,68.70
2022-09-27T11:42:40.996Z,69.00
2022-09-27T11:45:50.257Z,68.90
2022-09-27T11:48:39.749Z,68.00
2022-09-27T11:51:38.730Z,68.30
2022-09-27T11:54:09.338Z,68.50
2022-09-27T11:56:42.172Z,68.40
2022-09-27T11:59:42.198Z,68.70
2022-09-27T12:02:14.969Z,68.80
2022-09-27T12:05:07.463Z,68.90
2022-09-27T12:07:43.738Z,69.40
2022-09-27T12:10:13.883Z,69.70
2022-09-27T12:12:41.603Z,70.40
2022-09-27T12:15:33.932Z,70.10
2022-09-27T12:18:06.059Z,71.20
2022-09-27T12:20:35.452Z,70.60
2022-09-27T12:23:24.842Z,69.30
2022-09-27T12:25:55.769Z,68.80
2022-09-27T12:28:59.860Z,68.10
2022-09-27T12:31:47.310Z,68.40
2022-09-27T12:34:20.626Z,68.60
2022-09-27T12:37:02.744Z,68.80
2022-09-27T12:39:30.567Z,69.60
2022-09-27T12:42:02.358Z,68.80
2022-09-27T12:44:30.456Z,68.80
2022-09-27T12:47:26.200Z,68.90
2022-09-27T12:50:06.593Z,69.20
2022-09-27T12:52:37.368Z,68.90
2022-09-27T12:55:38.893Z,68.80
2022-09-27T12:58:40.467Z,68.80
2022-09-27T13:01:15.921Z,68.80
2022-09-27T13:03:50.267Z,68.70
2022-09-27T13:06:29.688Z,68.60
2022-09-27T13:09:14.399Z,68.10
2022-09-27T13:11:54.042Z,68.40
2022-09-27T13:14:24.507Z,68.40
2022-09-27T13:16:51.692Z,68.10
2022-09-27T13:19:40.337Z,68.40
2022-09-27T13:22:09.182Z,67.40
2022-09-27T13:24:39.350Z,67.10
2022-09-27T13:27:27.872Z,67.00
2022-09-27T13:30:09.787Z,67.10
2022-09-27T13:32:37.078Z,67.10
2022-09-27T13:35:12.965Z,67.10
2022-09-27T13:38:00.622Z,66.60
2022-09-27T13:40:28.903Z,67.40
2022-09-27T13:43:02.763Z,66.90
2022-09-27T13:45:34.580Z,67.20
2022-09-27T13:48:01.309Z,66.50
2022-09-27T13:50:46.749Z,66.50
2022-09-27T13:53:31.413Z,67.70
2022-09-27T13:55:58.195Z,67.20
2022-09-27T13:58:45.877Z,67.40
2022-09-27T14:01:36.422Z,67.60
2022-09-27T14:04:13.231Z,67.80
2022-09-27T14:06:43.798Z,68.00
2022-09-27T14:09:35.631Z,68.10
2022-09-27T14:12:04.817Z,68.30
2022-09-27T14:14:32.976Z,68.40
2022-09-27T14:17:00.240Z,68.50
2022-09-27T14:19:27.700Z,68.40
2022-09-27T14:21:54.848Z,68.60
2022-09-27T14:24:29.612Z,68.50
2022-09-27T14:27:11.405Z,68.80
2022-09-27T14:29:46.796Z,69.00
2022-09-27T14:32:18.558Z,69.20
2022-09-27T14:34:45.428Z,69.30
2022-09-27T14:37:25.952Z,69.40
2022-09-27T14:39:58.032Z,69.80
2022-09-27T14:42:28.814Z,70.00
2022-09-27T14:44:59.291Z,70.30
2022-09-27T14:47:27.912Z,70.50
2022-09-27T14:50:00.359Z,70.80
2022-09-27T14:52:33.105Z,70.90
2022-09-27T14:55:02.715Z,70.70
2022-09-27T14:57:32.979Z,70.60
2022-09-27T15:00:21.853Z,71.30
2022-09-27T15:02:50.372Z,71.30
2022-09-27T15:05:19.108Z,73.10
2022-09-27T15:07:46.393Z,71.70
2022-09-27T15:10:20.255Z,72.30
2022-09-27T15:12:51.416Z,72.10
2022-09-27T15:15:31.485Z,72.00
2022-09-27T15:18:00.083Z,73.30
2022-09-27T15:20:33.761Z,71.80
2022-09-27T15:23:03.306Z,71.90
2022-09-27T15:25:43.356Z,72.10
2022-09-27T15:28:18.252Z,72.20
2022-09-27T15:30:54.979Z,72.30
2022-09-27T15:33:23.855Z,72.30
2022-09-27T15:35:52.296Z,72.10
2022-09-27T15:38:43.692Z,70.90
2022-09-27T15:41:13.032Z,71.30
2022-09-27T15:43:52.629Z,71.10
2022-09-27T15:46:22.667Z,71.10
2022-09-27T15:49:17.495Z,70.70
2022-09-27T15:51:45.777Z,71.00
2022-09-27T15:54:12.532Z,72.00
2022-09-27T15:56:39.619Z,72.50
2022-09-27T15:59:07.862Z,71.90
2022-09-27T16:01:34.621Z,71.30
2022-09-27T16:04:02.062Z,71.10
2022-09-27T16:06:30.207Z,71.00
2022-09-27T16:08:56.921Z,71.70
2022-09-27T16:11:23.662Z,71.40
2022-09-27T16:13:52.854Z,72.40
2022-09-27T16:16:19.978Z,72.50
2022-09-27T16:18:46.910Z,71.50
2022-09-27T16:21:13.706Z,72.70
2022-09-27T16:23:40.564Z,74.50
2022-09-27T16:26:07.541Z,73.10
2022-09-27T16:28:34.674Z,73.00
2022-09-27T16:31:05.409Z,74.70
2022-09-27T16:33:33.821Z,72.20
2022-09-27T16:36:03.841Z,73.20
2022-09-27T16:38:30.635Z,73.00
2022-09-27T16:41:03.123Z,72.20
2022-09-27T16:43:31.932Z,71.90
2022-09-27T16:46:09.345Z,71.90
2022-09-27T16:48:36.216Z,71.50
2022-09-27T16:51:26.428Z,71.30
2022-09-27T16:53:53.259Z,71.30
2022-09-27T16:56:20.718Z,71.30
2022-09-27T16:58:47.957Z,71.70
2022-09-27T17:01:16.834Z,72.50
2022-09-27T17:03:45.445Z,71.60
2022-09-27T17:06:12.568Z,71.80
2022-09-27T17:08:39.335Z,71.50
2022-09-27T17:11:06.498Z,71.20
2022-09-27T17:13:34.269Z,72.20
2022-09-27T17:16:04.057Z,71.30
2022-09-27T17:18:30.878Z,71.10
2022-09-27T17:21:04.254Z,71.20
2022-09-27T17:23:32.014Z,71.00
2022-09-27T17:26:09.139Z,71.10
2022-09-27T17:28:36.796Z,71.00
2022-09-27T17:31:11.045Z,70.50
2022-09-27T17:33:43.320Z,70.40
2022-09-27T17:36:12.272Z,70.60
2022-09-27T17:38:39.483Z,70.20
2022-09-27T17:41:10.413Z,69.90
2022-09-27T17:43:47.354Z,69.90
2022-09-27T17:46:14.134Z,69.70
2022-09-27T17:48:59.225Z,69.70
2022-09-27T17:51:25.955Z,69.80
2022-09-27T17:53:52.806Z,70.00
2022-09-27T17:56:19.509Z,71.00
2022-09-27T17:58:50.349Z,69.80
2022-09-27T18:01:17.613Z,70.10
2022-09-27T18:03:44.594Z,71.90
2022-09-27T18:06:12.359Z,73.10
2022-09-27T18:08:39.102Z,72.90
2022-09-27T18:11:13.549Z,72.70
2022-09-27T18:13:40.805Z,72.50
2022-09-27T18:16:11.664Z,73.50
2022-09-27T18:18:39.263Z,73.10
2022-09-27T18:21:11.387Z,74.30
2022-09-27T18:23:38.492Z,74.40
2022-09-27T18:26:08.817Z,74.30
2022-09-27T18:28:38.701Z,74.10
2022-09-27T18:33:54.304Z,77.20
2022-09-27T18:36:25.241Z,80.60
2022-09-27T18:38:53.899Z,81.00
2022-09-27T18:41:21.152Z,83.20
2022-09-27T18:43:48.100Z,81.70
2022-09-27T18:46:35.111Z,80.20
2022-09-27T18:49:04.040Z,80.10
2022-09-27T18:51:30.992Z,80.10
2022-09-27T18:54:06.346Z,80.50
2022-09-27T18:56:39.712Z,80.20
2022-09-27T18:59:08.904Z,80.10
2022-09-27T19:01:42.284Z,80.00
2022-09-27T19:04:09.387Z,79.80
2022-09-27T19:06:36.858Z,80.00
2022-09-27T19:09:05.143Z,83.20
2022-09-27T19:11:31.982Z,81.90
2022-09-27T19:13:58.812Z,81.20
2022-09-27T19:16:26.315Z,81.20
2022-09-27T19:18:53.192Z,83.40
2022-09-27T19:21:24.517Z,83.70
2022-09-27T19:23:51.499Z,85.60
2022-09-27T19:26:20.236Z,83.30
2022-09-27T19:28:47.165Z,83.20
2022-09-27T19:31:15.773Z,84.00
2022-09-27T19:33:42.757Z,84.50
2022-09-27T19:36:12.238Z,84.40
2022-09-27T19:38:39.504Z,83.60
2022-09-27T19:41:09.068Z,83.50
2022-09-27T19:43:36.557Z,83.30
2022-09-27T19:46:08.462Z,83.10
2022-09-27T19:48:38.906Z,83.00
2022-09-27T19:51:08.379Z,82.70
2022-09-27T19:53:35.608Z,82.50
2022-09-27T19:56:06.566Z,82.50
2022-09-27T19:58:34.571Z,82.20
2022-09-27T20:01:11.763Z,82.20
2022-09-27T20:03:40.407Z,82.10
2022-09-27T20:06:12.528Z,81.70
2022-09-27T20:08:39.327Z,81.80
2022-09-27T20:11:10.828Z,82.50
2022-09-27T20:13:38.691Z,82.40
2022-09-27T20:16:08.543Z,81.20
2022-09-27T20:18:39.016Z,81.50
2022-09-27T20:21:07.431Z,81.20
2022-09-27T20:23:34.337Z,81.30
2022-09-27T20:26:12.423Z,81.30
2022-09-27T20:28:50.185Z,81.60
2022-09-27T20:31:18.655Z,82.10
2022-09-27T20:33:46.803Z,82.70
2022-09-27T20:36:26.376Z,82.80
2022-09-27T20:39:02.242Z,83.20
2022-09-27T20:41:33.746Z,83.00
2022-09-27T20:44:03.591Z,83.50
2022-09-27T20:46:30.504Z,83.40
2022-09-27T20:48:59.111Z,83.20
2022-09-27T20:51:29.013Z,83.70
2022-09-27T20:53:55.729Z,82.80
2022-09-27T20:56:24.446Z,82.60
2022-09-27T20:58:52.810Z,82.50
2022-09-27T21:01:19.918Z,82.50
2022-09-27T21:03:46.774Z,83.10
2022-09-27T21:06:13.726Z,82.40
2022-09-27T21:08:41.013Z,83.40
2022-09-27T21:11:14.500Z,82.60
2022-09-27T21:13:41.528Z,82.60
2022-09-27T21:16:10.789Z,82.60
2022-09-27T21:18:37.520Z,82.50
2022-09-27T21:21:09.258Z,82.40
2022-09-27T21:23:40.832Z,82.40
2022-09-27T21:26:14.837Z,82.50
2022-09-27T21:28:43.423Z,82.70
2022-09-27T21:31:31.909Z,82.70
2022-09-27T21:34:00.404Z,82.70
2022-09-27T21:36:31.928Z,82.90
2022-09-27T21:38:58.823Z,83.00
2022-09-27T21:41:25.827Z,83.00
2022-09-27T21:43:52.881Z,83.20
2022-09-27T21:46:22.396Z,83.30
2022-09-27T21:48:50.728Z,83.30
2022-09-27T21:51:22.225Z,83.30
2022-09-27T21:53:53.190Z,83.40
2022-09-27T21:56:20.522Z,83.40
2022-09-27T21:58:47.315Z,83.50
2022-09-27T22:01:14.935Z,83.50
2022-09-27T22:03:43.566Z,83.60
2022-09-27T22:06:12.674Z,83.40
2022-09-27T22:08:39.395Z,83.60
2022-09-27T22:11:06.327Z,84.20
2022-09-27T22:13:33.154Z,84.30
2022-09-27T22:16:22.132Z,83.40
2022-09-27T22:18:50.543Z,83.60
2022-09-27T22:21:21.963Z,83.70
2022-09-27T22:23:52.800Z,83.70
2022-09-27T22:26:21.434Z,83.70
2022-09-27T22:28:48.186Z,84.60
2022-09-27T22:31:15.757Z,83.70
2022-09-27T22:33:43.127Z,83.70
2022-09-27T22:36:09.900Z,83.60
2022-09-27T22:38:36.697Z,83.90
2022-09-27T22:41:03.639Z,83.90
2022-09-27T22:43:30.488Z,84.00
2022-09-27T22:45:57.519Z,84.10
2022-09-27T22:48:24.312Z,84.10
2022-09-27T22:50:51.010Z,84.20
2022-09-27T22:53:17.744Z,84.10
2022-09-27T22:55:44.447Z,84.30
2022-09-27T22:58:11.161Z,84.20
2022-09-27T23:00:38.738Z,84.40
2022-09-27T23:03:05.532Z,84.60
2022-09-27T23:05:32.257Z,84.80
2022-09-27T23:07:58.959Z,85.90
2022-09-27T23:10:25.660Z,84.90
2022-09-27T23:12:55.435Z,84.80
2022-09-27T23:15:22.158Z,84.80
2022-09-27T23:17:51.845Z,85.00
2022-09-27T23:20:18.822Z,85.10
2022-09-27T23:22:45.785Z,85.20
2022-09-27T23:25:12.777Z,85.20
2022-09-27T23:27:42.235Z,85.20
2022-09-27T23:30:10.000Z,85.40
2022-09-27T23:32:36.797Z,85.50
2022-09-27T23:35:03.679Z,85.60
2022-09-27T23:37:30.407Z,85.90
2022-09-27T23:39:57.438Z,86.10
2022-09-27T23:42:24.194Z,86.30
2022-09-27T23:44:52.652Z,86.20
2022-09-27T23:47:19.395Z,86.20
2022-09-27T23:49:46.136Z,86.20
2022-09-27T23:52:12.840Z,86.00
2022-09-27T23:54:39.648Z,85.80
2022-09-27T23:57:06.356Z,85.90
2022-09-27T23:59:33.105Z,85.90
